Anchorage, Alaska
Current Conditions -  °F | °C
As of 11:53 PM on Tuesday 21 Oct 2014 (Local Time) from PANC Reporting Station
Clear Clear  
Wind Chill: 30°   Ceiling: Unl
Heat Index: 36°   Visibility: 10mi
Dew Point: 25°   Wind: 7mph
Humidity: 64%   Direction: 360°N
Pressure: 29.22"   Gusts: NA
Location:  61.16°N, 150.01°W
Report Text: PANC 220753Z 36006KT 10SM CLR 02/M04 A2922 RMK AO2 SLP895 T00221039
Loading
Personal Weather Stations






























Interactive Weather Map
Tropical Storm Tracking
New forecast layout! Learn more

10-Day Weather Forecast

Advertisements
Track Severe Weather on mobile